Time;durP1;ratioP1;P1;durP2;ratioP2;P2;SDS_P1;SDS_P2;PMS_P1;PMS_P2;Temp;Humidity;BMP_temperature;BMP_pressure;BME280_temperature;BME280_humidity;BME280_pressure;Samples;Min_cycle;Max_cycle;Signal;HPM_P1;HPM_P2
2023/01/20 00:01:11;;;;;;;1.90;1.20;;;3.60;37.40;;;;;;4950921;29;20287;-69
2023/01/20 00:03:41;;;;;;;3.17;1.95;;;3.50;37.80;;;;;;4954643;28;20505;-69
2023/01/20 00:06:08;;;;;;;2.00;1.33;;;3.70;37.20;;;;;;4951281;29;20230;-71
2023/01/20 00:08:34;;;;;;;3.15;1.73;;;3.90;36.10;;;;;;4954682;29;20179;-69
2023/01/20 00:11:04;;;;;;;1.90;1.25;;;3.90;35.80;;;;;;4954235;28;20568;-69
2023/01/20 00:13:30;;;;;;;3.35;1.80;;;4.00;35.20;;;;;;4954302;29;20530;-69
2023/01/20 00:15:55;;;;;;;1.80;1.10;;;3.90;35.70;;;;;;4952844;28;20217;-68
2023/01/20 00:18:21;;;;;;;2.00;1.33;;;4.00;35.40;;;;;;4949023;29;21025;-68
2023/01/20 00:20:47;;;;;;;1.80;1.10;;;4.00;35.60;;;;;;4930373;29;20219;-68
2023/01/20 00:23:12;;;;;;;2.20;1.60;;;4.00;35.30;;;;;;4953877;29;20266;-71
2023/01/20 00:25:38;;;;;;;1.80;1.10;;;4.00;35.20;;;;;;4954559;28;20760;-68
2023/01/20 00:28:04;;;;;;;4.10;2.00;;;4.00;35.10;;;;;;4935345;29;20183;-68
2023/01/20 00:30:30;;;;;;;2.20;1.50;;;3.90;35.00;;;;;;4953882;29;20176;-68
2023/01/20 00:32:55;;;;;;;2.00;1.30;;;3.90;35.50;;;;;;4953834;29;20430;-68
2023/01/20 00:35:21;;;;;;;1.80;1.10;;;3.90;36.30;;;;;;4954177;28;20206;-69
2023/01/20 00:37:47;;;;;;;2.30;1.53;;;4.00;35.00;;;;;;4953073;29;20643;-70
2023/01/20 00:40:12;;;;;;;1.90;1.20;;;4.00;34.90;;;;;;4951382;29;20270;-68
2023/01/20 00:42:38;;;;;;;2.00;1.40;;;4.00;35.00;;;;;;4953516;28;20635;-68
2023/01/20 00:45:04;;;;;;;2.40;1.67;;;3.90;35.60;;;;;;4943514;28;20935;-69
2023/01/20 00:47:30;;;;;;;2.65;1.70;;;3.80;36.60;;;;;;4953806;29;20175;-68
2023/01/20 00:49:55;;;;;;;1.70;1.10;;;3.70;37.30;;;;;;4952891;29;20726;-69
2023/01/20 00:52:21;;;;;;;1.80;1.20;;;3.70;37.90;;;;;;4935682;29;20187;-70
2023/01/20 00:54:47;;;;;;;2.03;1.40;;;3.60;37.60;;;;;;4952277;28;20199;-68
2023/01/20 00:57:12;;;;;;;2.40;1.80;;;3.60;37.70;;;;;;4935997;29;20194;-69
2023/01/20 00:59:38;;;;;;;1.80;1.20;;;3.70;37.10;;;;;;4952618;29;20183;-69
2023/01/20 01:02:04;;;;;;;1.80;1.20;;;3.80;37.10;;;;;;4953407;28;20217;-69
2023/01/20 01:04:29;;;;;;;2.20;1.27;;;3.90;36.90;;;;;;4952914;28;20631;-71
2023/01/20 01:06:55;;;;;;;1.70;1.10;;;4.10;36.30;;;;;;4951954;29;20187;-69
2023/01/20 01:09:20;;;;;;;1.80;1.20;;;4.00;37.10;;;;;;4952205;28;20190;-69
2023/01/20 01:11:47;;;;;;;2.00;1.40;;;4.10;35.60;;;;;;4950328;29;20527;-69
2023/01/20 01:14:13;;;;;;;2.03;1.40;;;4.00;36.00;;;;;;4949576;28;20274;-68
2023/01/20 01:16:39;;;;;;;2.33;1.53;;;3.90;35.90;;;;;;4953391;29;20339;-69
2023/01/20 01:19:04;;;;;;;1.80;1.20;;;4.10;35.90;;;;;;4952273;29;20418;-69
2023/01/20 01:21:30;;;;;;;1.70;1.10;;;4.20;35.40;;;;;;4952970;29;20577;-70
2023/01/20 01:23:55;;;;;;;1.73;1.30;;;4.30;35.40;;;;;;4950586;28;20561;-68
2023/01/20 01:26:21;;;;;;;1.90;1.20;;;4.10;35.50;;;;;;4952632;29;20557;-69
2023/01/20 01:28:48;;;;;;;3.30;1.60;;;3.90;36.30;;;;;;4953206;29;20238;-69
2023/01/20 01:31:15;;;;;;;2.00;1.30;;;4.00;37.00;;;;;;4952410;28;20183;-69
2023/01/20 01:33:41;;;;;;;2.70;1.40;;;4.00;36.70;;;;;;4934887;29;20278;-69
2023/01/20 01:36:12;;;;;;;1.70;1.10;;;4.00;36.60;;;;;;4952544;28;20653;-69
2023/01/20 01:38:38;;;;;;;1.80;1.15;;;4.10;36.30;;;;;;4952729;29;20419;-69
2023/01/20 01:41:04;;;;;;;1.90;1.30;;;3.90;36.90;;;;;;4951406;28;20270;-68
2023/01/20 01:43:32;;;;;;;8.90;3.10;;;4.00;37.00;;;;;;4934952;29;20191;-72
2023/01/20 01:45:58;;;;;;;3.30;1.90;;;4.20;35.50;;;;;;4950549;28;20879;-68
2023/01/20 01:48:40;;;;;;;1.70;1.10;;;4.30;35.00;;;;;;4953090;29;20176;-68
2023/01/20 01:51:38;;;;;;;1.90;1.20;;;4.30;35.30;;;;;;4940513;29;20182;-68
2023/01/20 01:54:11;;;;;;;2.58;1.95;;;4.10;36.20;;;;;;4951361;28;20183;-68
2023/01/20 01:56:37;;;;;;;1.70;1.10;;;4.10;35.60;;;;;;4951949;28;20660;-68
2023/01/20 01:59:04;;;;;;;2.22;1.45;;;4.30;35.10;;;;;;4947620;29;20266;-68
2023/01/20 02:01:33;;;;;;;1.80;1.30;;;4.10;36.00;;;;;;4950899;28;20178;-68
2023/01/20 02:04:11;;;;;;;1.70;1.10;;;4.30;36.60;;;;;;4951868;28;20226;-68
2023/01/20 02:06:43;;;;;;;2.17;1.45;;;4.40;35.80;;;;;;4952034;29;20497;-68
2023/01/20 02:09:09;;;;;;;1.70;1.10;;;4.50;35.20;;;;;;4953529;29;20636;-70
2023/01/20 02:11:48;;;;;;;2.57;1.70;;;4.30;34.60;;;;;;4954787;28;20190;-68
2023/01/20 02:14:20;;;;;;;1.90;1.40;;;4.20;35.80;;;;;;4936471;29;20205;-68
2023/01/20 02:16:51;;;;;;;1.70;1.10;;;4.10;36.30;;;;;;4953256;28;20188;-70
2023/01/20 02:19:29;;;;;;;2.25;1.70;;;4.10;35.40;;;;;;4934076;28;20269;-68
2023/01/20 02:21:58;;;;;;;1.70;1.10;;;4.20;36.10;;;;;;4937944;29;20190;-68
2023/01/20 02:24:44;;;;;;;1.73;1.17;;;4.00;36.10;;;;;;4957899;28;20192;-68
2023/01/20 02:27:22;;;;;;;1.88;1.33;;;3.90;36.70;;;;;;4958323;29;20260;-68
2023/01/20 02:30:09;;;;;;;2.20;1.77;;;4.00;35.70;;;;;;4955595;29;20186;-70
2023/01/20 02:32:49;;;;;;;1.90;1.30;;;4.00;35.30;;;;;;4939899;29;20238;-69
2023/01/20 02:35:24;;;;;;;1.80;1.20;;;4.10;35.30;;;;;;4956539;28;20203;-68
2023/01/20 02:37:59;;;;;;;1.70;1.10;;;4.10;35.30;;;;;;4957978;28;20186;-69
2023/01/20 02:40:34;;;;;;;1.80;1.30;;;4.00;35.50;;;;;;4955898;29;20193;-68
2023/01/20 02:43:13;;;;;;;1.80;1.20;;;4.10;34.80;;;;;;4957603;29;20181;-68
2023/01/20 02:45:48;;;;;;;2.10;1.40;;;4.10;34.30;;;;;;4958236;28;20215;-69
2023/01/20 02:48:43;;;;;;;1.70;1.15;;;3.90;35.70;;;;;;4956723;29;20171;-68
2023/01/20 02:51:20;;;;;;;1.80;1.13;;;3.90;35.90;;;;;;4952263;28;20199;-71
2023/01/20 02:54:08;;;;;;;1.80;1.10;;;3.80;36.20;;;;;;4957292;28;20186;-68
2023/01/20 02:56:34;;;;;;;1.73;1.10;;;3.60;36.80;;;;;;4956515;28;20187;-68
2023/01/20 02:59:10;;;;;;;2.65;1.50;;;3.50;38.20;;;;;;4957375;28;20179;-68
2023/01/20 03:01:46;;;;;;;1.80;1.17;;;3.70;36.60;;;;;;4954786;28;20252;-68
2023/01/20 03:04:15;;;;;;;1.73;1.10;;;3.60;37.00;;;;;;4956969;28;20214;-68
2023/01/20 03:06:45;;;;;;;2.78;1.65;;;3.50;37.60;;;;;;4939949;29;20223;-69
2023/01/20 03:09:17;;;;;;;2.75;1.77;;;3.60;37.20;;;;;;4957189;29;20527;-69
2023/01/20 03:11:57;;;;;;;2.00;1.48;;;3.80;36.30;;;;;;4954120;29;20655;-71
2023/01/20 03:14:23;;;;;;;2.10;1.33;;;3.80;36.40;;;;;;4955612;28;20207;-69
2023/01/20 03:16:49;;;;;;;1.73;1.13;;;3.70;37.10;;;;;;4956995;29;20547;-68
2023/01/20 03:19:17;;;;;;;2.40;1.77;;;3.60;37.70;;;;;;4956613;29;20171;-68
2023/01/20 03:21:43;;;;;;;2.90;1.40;;;3.50;37.60;;;;;;4954459;29;20191;-68
2023/01/20 03:24:08;;;;;;;1.70;1.10;;;3.60;37.80;;;;;;4956285;28;20211;-69
2023/01/20 03:26:34;;;;;;;1.80;1.10;;;3.70;37.10;;;;;;4956530;29;20542;-69
2023/01/20 03:29:06;;;;;;;2.23;1.60;;;3.60;37.20;;;;;;4955612;29;20199;-68
2023/01/20 03:32:02;;;;;;;1.80;1.30;;;3.40;37.30;;;;;;4954404;28;20183;-69
2023/01/20 03:34:31;;;;;;;1.70;1.10;;;3.60;37.00;;;;;;4951138;28;20215;-71
2023/01/20 03:36:59;;;;;;;3.65;1.40;;;3.60;36.00;;;;;;4955972;29;20214;-68
2023/01/20 03:39:25;;;;;;;2.00;1.40;;;3.50;36.60;;;;;;4955953;28;20172;-68
2023/01/20 03:42:06;;;;;;;1.85;1.20;;;3.20;37.30;;;;;;4955015;29;20226;-68
2023/01/20 03:44:59;;;;;;;1.80;1.10;;;3.30;37.70;;;;;;4953683;29;20206;-69
2023/01/20 03:47:37;;;;;;;2.22;1.40;;;3.30;37.10;;;;;;4945089;29;20234;-68
2023/01/20 03:50:32;;;;;;;8.27;3.45;;;3.40;36.70;;;;;;4956037;29;20574;-68
2023/01/20 03:53:09;;;;;;;2.00;1.30;;;3.40;37.10;;;;;;4935942;29;20187;-68
2023/01/20 03:55:51;;;;;;;1.90;1.25;;;3.10;37.50;;;;;;4953959;29;20640;-68
2023/01/20 03:58:26;;;;;;;1.90;1.27;;;2.70;38.70;;;;;;4955464;28;20186;-69
2023/01/20 04:00:52;;;;;;;2.08;1.40;;;2.80;39.40;;;;;;4953244;29;20546;-68
2023/01/20 04:03:22;;;;;;;3.42;2.13;;;3.00;39.40;;;;;;4954625;29;20198;-68
2023/01/20 04:05:49;;;;;;;1.70;1.10;;;3.30;38.00;;;;;;4954151;28;20250;-71
2023/01/20 04:08:17;;;;;;;1.70;1.10;;;3.40;38.10;;;;;;4954640;29;20678;-68
2023/01/20 04:10:47;;;;;;;1.73;1.10;;;3.80;37.30;;;;;;4954583;29;20210;-69
2023/01/20 04:13:13;;;;;;;1.80;1.10;;;3.60;37.80;;;;;;4953874;29;20254;-70
2023/01/20 04:15:45;;;;;;;3.20;1.95;;;3.80;36.60;;;;;;4954574;28;20207;-68
2023/01/20 04:18:15;;;;;;;1.80;1.20;;;3.80;36.30;;;;;;4955279;29;20592;-67
2023/01/20 04:20:43;;;;;;;2.53;1.65;;;3.70;36.60;;;;;;4955693;29;20583;-68
2023/01/20 04:23:39;;;;;;;1.80;1.20;;;3.60;37.10;;;;;;4940145;29;20214;-70
2023/01/20 04:26:05;;;;;;;2.55;2.00;;;3.40;37.90;;;;;;4913753;29;20312;-68
2023/01/20 04:28:31;;;;;;;1.80;1.30;;;3.20;38.00;;;;;;4921591;29;20184;-68
2023/01/20 04:30:57;;;;;;;2.67;1.63;;;3.30;37.80;;;;;;4913809;29;20177;-70
2023/01/20 04:33:22;;;;;;;1.90;1.20;;;3.30;37.20;;;;;;4911281;29;20203;-68
2023/01/20 04:35:48;;;;;;;2.10;1.50;;;3.00;37.70;;;;;;4912920;29;20242;-68
2023/01/20 04:38:14;;;;;;;2.07;1.43;;;2.70;38.40;;;;;;4917208;29;20260;-68
2023/01/20 04:40:39;;;;;;;1.90;1.17;;;2.70;38.50;;;;;;4922746;29;20193;-70
2023/01/20 04:43:05;;;;;;;2.07;1.30;;;2.70;38.70;;;;;;4914694;29;20201;-68
2023/01/20 04:45:30;;;;;;;1.90;1.20;;;2.90;37.90;;;;;;4903724;29;20216;-68
2023/01/20 04:47:56;;;;;;;1.90;1.20;;;3.20;37.00;;;;;;4907478;29;20228;-68
2023/01/20 04:50:22;;;;;;;1.80;1.10;;;3.10;37.30;;;;;;4914224;29;20196;-69
2023/01/20 04:52:47;;;;;;;2.17;1.40;;;3.20;37.80;;;;;;4919785;29;20240;-68
2023/01/20 04:55:13;;;;;;;2.57;1.70;;;3.30;37.30;;;;;;4912387;29;20216;-68
2023/01/20 04:57:39;;;;;;;1.80;1.10;;;3.40;36.70;;;;;;4897115;29;20213;-68
2023/01/20 05:00:06;;;;;;;1.80;1.10;;;3.60;36.10;;;;;;4921091;29;20433;-69
2023/01/20 05:02:32;;;;;;;2.10;1.30;;;3.70;36.30;;;;;;4911276;29;20286;-69
2023/01/20 05:04:57;;;;;;;3.20;2.03;;;3.60;36.90;;;;;;4936144;29;20766;-68
2023/01/20 05:07:23;;;;;;;1.90;1.20;;;3.80;36.90;;;;;;4934861;29;20462;-68
2023/01/20 05:09:49;;;;;;;1.80;1.10;;;5.00;38.10;;;;;;4934982;29;20188;-69
2023/01/20 05:12:14;;;;;;;1.80;1.20;;;3.90;37.90;;;;;;4953260;29;20279;-69
2023/01/20 05:14:40;;;;;;;2.10;1.43;;;3.50;37.70;;;;;;4953133;29;20199;-69
2023/01/20 05:17:05;;;;;;;2.30;1.40;;;3.50;37.80;;;;;;4951675;29;20191;-68
2023/01/20 05:19:31;;;;;;;1.80;1.20;;;3.60;37.30;;;;;;4951422;29;20203;-68
2023/01/20 05:21:58;;;;;;;1.83;1.23;;;3.60;37.20;;;;;;4952401;29;20194;-71
2023/01/20 05:24:24;;;;;;;1.70;1.10;;;3.80;38.50;;;;;;4951941;28;20278;-68
2023/01/20 05:26:49;;;;;;;1.80;1.30;;;3.90;36.70;;;;;;4951412;29;20318;-68
2023/01/20 05:29:15;;;;;;;1.80;1.30;;;3.80;37.10;;;;;;4935462;29;20195;-68
2023/01/20 05:31:42;;;;;;;1.80;1.23;;;3.80;37.40;;;;;;4951849;29;20269;-69
2023/01/20 05:34:08;;;;;;;1.70;1.20;;;3.80;37.60;;;;;;4953135;28;20567;-68
2023/01/20 05:36:34;;;;;;;3.08;1.73;;;3.70;38.70;;;;;;4953266;28;20197;-68
2023/01/20 05:39:00;;;;;;;2.33;1.47;;;3.70;39.20;;;;;;4933643;29;20187;-68
2023/01/20 05:41:25;;;;;;;1.60;1.10;;;3.60;39.00;;;;;;4935357;29;20439;-68
2023/01/20 05:43:54;;;;;;;1.70;1.20;;;3.50;39.10;;;;;;4951751;28;20202;-68
2023/01/20 05:46:20;;;;;;;2.42;1.42;;;3.60;39.10;;;;;;4952161;29;20285;-68
2023/01/20 05:48:46;;;;;;;1.63;1.10;;;3.60;38.80;;;;;;4952247;29;20191;-68
2023/01/20 05:51:11;;;;;;;1.80;1.20;;;3.90;39.30;;;;;;4951506;29;20186;-72
2023/01/20 05:53:37;;;;;;;1.70;1.10;;;3.60;39.60;;;;;;4952750;29;20600;-69
2023/01/20 05:56:04;;;;;;;2.53;1.83;;;3.60;39.70;;;;;;4956059;28;20199;-68
2023/01/20 05:58:31;;;;;;;1.80;1.20;;;3.70;39.30;;;;;;4956099;29;20183;-68
2023/01/20 06:01:09;;;;;;;1.80;1.40;;;3.80;39.10;;;;;;4941570;29;20214;-69
2023/01/20 06:03:36;;;;;;;1.70;1.17;;;3.80;38.70;;;;;;4955240;29;20275;-68
2023/01/20 06:06:04;;;;;;;1.80;1.27;;;3.80;39.10;;;;;;4955959;28;20210;-68
2023/01/20 06:08:29;;;;;;;1.70;1.30;;;3.90;38.70;;;;;;4956767;29;20207;-68
2023/01/20 06:10:55;;;;;;;1.70;1.20;;;3.80;38.70;;;;;;4957048;29;20651;-68
2023/01/20 06:13:20;;;;;;;1.70;1.23;;;3.60;39.60;;;;;;4936685;29;20266;-68
2023/01/20 06:15:55;;;;;;;1.90;1.30;;;3.70;39.40;;;;;;4956705;28;20286;-68
2023/01/20 06:18:22;;;;;;;1.98;1.40;;;3.70;39.40;;;;;;4939280;29;20282;-68
2023/01/20 06:20:47;;;;;;;1.70;1.10;;;3.70;39.30;;;;;;4956780;28;20909;-68
2023/01/20 06:23:13;;;;;;;2.50;1.90;;;3.80;39.10;;;;;;4954848;28;20214;-68
2023/01/20 06:25:39;;;;;;;1.70;1.20;;;3.80;39.20;;;;;;4939066;29;20234;-68
2023/01/20 06:28:05;;;;;;;1.73;1.23;;;5.10;40.30;;;;;;4955764;29;20238;-67
2023/01/20 06:30:30;;;;;;;1.97;1.40;;;3.90;38.90;;;;;;4955695;29;20442;-68
2023/01/20 06:32:56;;;;;;;2.37;1.50;;;4.00;38.20;;;;;;4955512;29;20180;-68
2023/01/20 06:35:23;;;;;;;1.70;1.10;;;4.00;38.60;;;;;;4955881;28;20354;-68
2023/01/20 06:37:48;;;;;;;2.60;1.55;;;3.90;38.80;;;;;;4938240;29;20618;-70
2023/01/20 06:40:14;;;;;;;2.10;1.60;;;3.90;39.20;;;;;;4955857;29;20194;-68
2023/01/20 06:42:40;;;;;;;3.75;2.40;;;3.90;38.80;;;;;;4955744;28;20700;-68
2023/01/20 06:45:07;;;;;;;3.10;2.30;;;4.00;38.70;;;;;;4954896;28;20219;-68
2023/01/20 06:47:32;;;;;;;1.77;1.20;;;4.10;38.80;;;;;;4954481;29;20470;-68
2023/01/20 06:49:58;;;;;;;2.17;1.50;;;4.00;39.00;;;;;;4955291;29;20244;-68
2023/01/20 06:52:23;;;;;;;1.80;1.20;;;3.90;39.30;;;;;;4955892;29;20180;-70
2023/01/20 06:54:49;;;;;;;1.90;1.40;;;4.10;38.20;;;;;;4952795;28;20737;-69
2023/01/20 06:57:15;;;;;;;2.00;1.33;;;4.20;38.80;;;;;;4955384;29;20259;-70
2023/01/20 06:59:41;;;;;;;5.80;1.87;;;4.30;38.00;;;;;;4955904;29;20266;-70
2023/01/20 07:02:10;;;;;;;2.97;1.63;;;4.10;38.60;;;;;;4955822;29;20175;-69
2023/01/20 07:04:36;;;;;;;2.20;1.58;;;4.00;38.80;;;;;;4937492;29;20233;-70
2023/01/20 07:07:02;;;;;;;1.80;1.10;;;4.10;39.10;;;;;;4952442;28;20187;-69
2023/01/20 07:09:27;;;;;;;1.90;1.40;;;4.20;38.40;;;;;;4955836;29;20604;-70
2023/01/20 07:11:53;;;;;;;1.97;1.43;;;4.40;38.30;;;;;;4954473;29;20190;-70
2023/01/20 07:14:19;;;;;;;1.60;1.10;;;4.40;37.90;;;;;;4953041;28;20207;-70
2023/01/20 07:16:45;;;;;;;1.63;1.07;;;4.40;38.20;;;;;;4943531;29;20199;-70
2023/01/20 07:19:11;;;;;;;1.70;1.20;;;4.30;38.70;;;;;;4955978;28;20674;-70
2023/01/20 07:21:37;;;;;;;2.03;1.30;;;4.40;38.90;;;;;;4954534;29;20191;-70
2023/01/20 07:24:03;;;;;;;3.20;1.97;;;4.50;38.40;;;;;;4954142;28;20643;-69
2023/01/20 07:26:29;;;;;;;2.10;1.50;;;4.50;38.70;;;;;;4952575;29;20207;-70
2023/01/20 07:28:57;;;;;;;1.80;1.30;;;4.60;39.30;;;;;;4946364;29;20458;-70
2023/01/20 07:31:25;;;;;;;5.88;2.47;;;4.70;38.20;;;;;;4955789;29;20538;-70
2023/01/20 07:33:51;;;;;;;1.80;1.30;;;4.80;37.80;;;;;;4954491;28;20183;-70
2023/01/20 07:36:17;;;;;;;2.20;1.30;;;4.70;37.90;;;;;;4953732;29;20195;-68
2023/01/20 07:38:47;;;;;;;1.75;1.20;;;4.60;38.20;;;;;;4951285;29;20456;-68
2023/01/20 07:41:16;;;;;;;1.80;1.20;;;4.70;38.20;;;;;;4955301;29;20553;-70
2023/01/20 07:43:43;;;;;;;1.80;1.25;;;4.60;38.40;;;;;;4949952;28;20187;-69
2023/01/20 07:46:08;;;;;;;2.15;1.50;;;4.50;39.10;;;;;;4954094;29;20222;-70
2023/01/20 07:48:34;;;;;;;3.60;2.27;;;4.70;38.50;;;;;;4957644;29;20175;-70
2023/01/20 07:51:04;;;;;;;2.60;1.60;;;4.60;38.80;;;;;;4957430;29;20182;-70
2023/01/20 07:53:41;;;;;;;1.90;1.27;;;4.60;39.30;;;;;;4957203;29;20171;-70
2023/01/20 07:56:10;;;;;;;1.80;1.20;;;4.80;39.20;;;;;;4956804;28;20210;-70
2023/01/20 07:58:36;;;;;;;4.05;2.42;;;4.80;39.00;;;;;;4954542;29;20274;-70
2023/01/20 08:01:10;;;;;;;1.77;1.20;;;4.70;38.80;;;;;;4955582;29;20713;-70
2023/01/20 08:03:36;;;;;;;3.10;2.13;;;4.70;39.40;;;;;;4955423;29;20184;-70
2023/01/20 08:06:03;;;;;;;3.30;2.03;;;4.70;39.50;;;;;;4956696;28;20262;-69
2023/01/20 08:08:31;;;;;;;2.65;1.70;;;4.60;40.00;;;;;;4957508;29;20220;-68
2023/01/20 08:10:57;;;;;;;2.03;1.50;;;4.60;40.40;;;;;;4955871;29;20578;-67
2023/01/20 08:13:23;;;;;;;2.38;1.90;;;4.60;40.10;;;;;;4956603;29;20171;-69
2023/01/20 08:15:49;;;;;;;2.93;1.93;;;4.40;40.30;;;;;;4956603;28;20206;-69
2023/01/20 08:18:15;;;;;;;2.20;1.50;;;4.50;40.30;;;;;;4954656;28;20529;-70
2023/01/20 08:20:40;;;;;;;2.17;1.60;;;4.50;39.90;;;;;;4939474;29;20274;-70
2023/01/20 08:23:06;;;;;;;4.53;2.33;;;4.40;39.90;;;;;;4955540;29;20203;-70
2023/01/20 08:25:32;;;;;;;2.00;1.50;;;3.90;41.00;;;;;;4940824;29;20482;-69
2023/01/20 08:27:57;;;;;;;4.73;1.70;;;3.70;42.10;;;;;;4954429;29;20192;-68
2023/01/20 08:30:23;;;;;;;4.43;1.60;;;3.70;43.40;;;;;;4955178;29;20262;-70
2023/01/20 08:32:49;;;;;;;2.30;1.60;;;3.70;43.20;;;;;;4954159;29;20213;-69
2023/01/20 08:35:15;;;;;;;2.00;1.50;;;4.10;42.50;;;;;;4955514;28;20431;-70
2023/01/20 08:37:41;;;;;;;2.10;1.50;;;4.00;41.90;;;;;;4954102;29;20200;-70
2023/01/20 08:40:08;;;;;;;1.70;1.10;;;3.90;41.80;;;;;;4941938;29;20449;-68
2023/01/20 08:42:36;;;;;;;2.08;1.40;;;4.10;41.00;;;;;;4954121;28;20586;-70
2023/01/20 08:45:03;;;;;;;3.33;1.58;;;4.30;40.40;;;;;;4954469;28;20203;-70
2023/01/20 08:47:28;;;;;;;1.83;1.17;;;4.40;40.50;;;;;;4953770;28;20283;-70
2023/01/20 08:49:54;;;;;;;1.80;1.20;;;4.50;39.80;;;;;;4954723;29;20250;-70
2023/01/20 08:52:20;;;;;;;3.50;2.33;;;4.80;38.50;;;;;;4954021;29;20186;-70
2023/01/20 08:54:45;;;;;;;3.20;1.80;;;4.60;37.60;;;;;;4942748;29;20214;-70
2023/01/20 08:57:11;;;;;;;2.40;1.30;;;4.70;37.60;;;;;;4952113;29;20183;-70
2023/01/20 08:59:37;;;;;;;1.80;1.13;;;4.80;36.70;;;;;;4945764;29;20186;-70
2023/01/20 09:02:02;;;;;;;2.10;1.47;;;4.80;36.90;;;;;;4936571;29;20703;-70
2023/01/20 09:04:28;;;;;;;2.17;1.37;;;4.80;36.90;;;;;;4952325;28;20602;-69
2023/01/20 09:06:53;;;;;;;1.93;1.27;;;4.80;36.80;;;;;;4952157;29;20190;-70
2023/01/20 09:09:21;;;;;;;4.10;2.93;;;5.00;36.80;;;;;;4953629;29;20183;-70
2023/01/20 09:11:50;;;;;;;2.30;1.58;;;5.20;36.30;;;;;;4952170;29;20197;-69
2023/01/20 09:14:20;;;;;;;2.05;1.40;;;5.20;36.90;;;;;;4952588;28;20215;-70
2023/01/20 09:16:46;;;;;;;2.38;1.85;;;5.30;36.10;;;;;;4953120;28;20183;-70
2023/01/20 09:19:12;;;;;;;1.83;1.15;;;5.60;35.70;;;;;;4951725;29;20286;-67
2023/01/20 09:21:37;;;;;;;2.30;1.60;;;5.60;35.60;;;;;;4952730;29;20651;-70
2023/01/20 09:24:04;;;;;;;2.60;1.90;;;5.50;35.50;;;;;;4952653;28;20214;-68
2023/01/20 09:26:37;;;;;;;2.40;1.73;;;5.40;36.10;;;;;;4953373;29;20195;-68
2023/01/20 09:29:07;;;;;;;2.35;1.65;;;5.30;35.50;;;;;;4951165;28;20187;-68
2023/01/20 09:31:34;;;;;;;2.42;1.50;;;5.40;35.70;;;;;;4953187;29;20195;-68
2023/01/20 09:34:00;;;;;;;4.55;2.38;;;5.50;35.10;;;;;;4952039;28;20690;-70
2023/01/20 09:36:29;;;;;;;1.95;1.25;;;5.30;35.60;;;;;;4953348;29;20187;-70
2023/01/20 09:43:52;;;;;;;3.08;1.52;;;4.00;38.90;;;;;;4951123;29;20246;-70
2023/01/20 09:44:55;;;;;;;2.00;1.30;;;3.90;40.20;;;;;;4945514;28;20206;-69
2023/01/20 09:47:30;;;;;;;2.20;1.33;;;4.30;38.70;;;;;;4952821;29;20186;-70
2023/01/20 09:53:40;;;;;;;1.85;1.17;;;4.70;37.10;;;;;;4949651;29;20238;-70
2023/01/20 09:56:16;;;;;;;2.10;1.40;;;4.10;39.30;;;;;;4950266;29;20233;-73
2023/01/20 09:58:49;;;;;;;2.10;1.40;;;3.80;39.70;;;;;;4947591;29;20199;-74
2023/01/20 10:01:29;;;;;;;2.35;1.75;;;3.90;39.80;;;;;;4951289;28;20190;-75
2023/01/20 10:04:18;;;;;;;1.90;1.20;;;3.80;39.80;;;;;;4935604;28;20179;-74
2023/01/20 10:06:46;;;;;;;2.10;1.30;;;3.70;41.50;;;;;;4951859;29;20199;-72
2023/01/20 10:09:21;;;;;;;2.00;1.20;;;4.40;39.70;;;;;;4939321;29;20497;-70
2023/01/20 10:11:49;;;;;;;1.90;1.20;;;5.10;37.20;;;;;;4932551;29;20191;-72
2023/01/20 10:14:32;;;;;;;2.00;1.35;;;5.90;35.00;;;;;;4950736;28;20238;-72
2023/01/20 10:17:11;;;;;;;3.00;2.10;;;5.90;34.60;;;;;;4952639;28;20254;-73
2023/01/20 10:19:55;;;;;;;3.00;1.33;;;6.30;34.00;;;;;;4949250;29;20183;-72
2023/01/20 10:22:39;;;;;;;3.85;1.52;;;6.30;32.50;;;;;;4950583;29;20592;-71
2023/01/20 10:25:16;;;;;;;2.88;1.83;;;6.40;32.20;;;;;;4934409;29;20222;-70
2023/01/20 10:27:55;;;;;;;2.03;1.35;;;5.50;34.70;;;;;;4951858;29;20189;-70
2023/01/20 10:30:25;;;;;;;2.65;1.92;;;6.00;32.90;;;;;;4952976;29;20234;-70
2023/01/20 10:32:57;;;;;;;2.10;1.40;;;5.20;35.50;;;;;;4950314;29;20179;-70
2023/01/20 10:35:30;;;;;;;2.45;1.63;;;5.90;34.50;;;;;;4952542;28;20239;-70
2023/01/20 10:37:57;;;;;;;2.10;1.35;;;6.20;33.60;;;;;;4952674;28;20584;-70
2023/01/20 10:40:31;;;;;;;1.90;1.20;;;6.40;31.70;;;;;;4952831;28;20179;-69
2023/01/20 10:42:59;;;;;;;3.30;2.13;;;6.20;32.00;;;;;;4954253;28;20194;-71
2023/01/20 10:45:44;;;;;;;2.20;1.23;;;6.00;31.60;;;;;;4954434;28;20698;-69
2023/01/20 10:48:47;;;;;;;2.33;1.55;;;5.60;34.70;;;;;;4955731;29;20185;-70
2023/01/20 10:51:25;;;;;;;2.42;1.73;;;5.50;33.10;;;;;;4956124;29;20639;-69
2023/01/20 10:54:10;;;;;;;1.83;1.13;;;4.90;34.60;;;;;;4954652;28;20202;-69
2023/01/20 10:56:45;;;;;;;1.90;1.20;;;5.20;34.90;;;;;;4956004;29;20211;-69
2023/01/20 10:59:16;;;;;;;2.85;1.65;;;5.70;33.20;;;;;;4955897;29;20186;-71
2023/01/20 11:01:47;;;;;;;2.72;1.33;;;5.80;34.30;;;;;;4956258;29;20283;-70
2023/01/20 11:04:18;;;;;;;2.20;1.58;;;5.30;35.20;;;;;;4951792;28;20294;-71
2023/01/20 11:06:51;;;;;;;1.90;1.20;;;5.70;33.60;;;;;;4953222;28;20766;-71
2023/01/20 11:09:24;;;;;;;2.47;1.67;;;6.50;33.00;;;;;;4953121;29;20203;-71
2023/01/20 11:11:51;;;;;;;2.28;1.48;;;6.40;31.70;;;;;;4954649;29;20179;-70
2023/01/20 11:14:16;;;;;;;3.55;1.92;;;5.70;33.60;;;;;;4955090;29;20199;-70
2023/01/20 11:16:45;;;;;;;1.80;1.10;;;6.00;34.10;;;;;;4955561;29;20710;-71
2023/01/20 11:19:11;;;;;;;2.30;1.63;;;6.40;32.60;;;;;;4956309;28;20180;-70
2023/01/20 11:21:39;;;;;;;2.83;1.77;;;7.10;31.30;;;;;;4956994;29;20258;-69
2023/01/20 11:24:27;;;;;;;3.75;1.67;;;7.00;32.10;;;;;;4953274;28;20442;-70
2023/01/20 11:27:02;;;;;;;1.80;1.13;;;6.00;32.90;;;;;;4951681;29;20211;-69
2023/01/20 11:29:31;;;;;;;3.55;2.60;;;5.60;34.90;;;;;;4956477;28;20170;-69
2023/01/20 11:31:58;;;;;;;2.90;2.10;;;5.70;34.30;;;;;;4956207;29;20179;-70
2023/01/20 11:34:31;;;;;;;1.90;1.30;;;5.70;34.80;;;;;;4954466;28;20678;-69
2023/01/20 11:37:08;;;;;;;1.90;1.20;;;5.20;35.80;;;;;;4951584;29;20187;-70
2023/01/20 11:39:42;;;;;;;1.90;1.33;;;5.50;35.10;;;;;;4963064;28;20175;-70
2023/01/20 11:42:16;;;;;;;1.80;1.20;;;6.50;34.00;;;;;;4942469;29;20215;-70
2023/01/20 11:45:08;;;;;;;2.00;1.27;;;6.90;31.90;;;;;;4953769;28;20205;-70
2023/01/20 11:47:36;;;;;;;1.80;1.10;;;8.60;30.50;;;;;;4953607;28;20574;-70
2023/01/20 11:50:07;;;;;;;2.22;1.48;;;7.60;29.20;;;;;;4956143;28;20175;-70
2023/01/20 11:52:45;;;;;;;1.80;1.10;;;7.80;29.00;;;;;;4952477;28;20187;-72
2023/01/20 11:55:11;;;;;;;1.85;1.23;;;6.90;30.00;;;;;;4951272;28;20215;-70
2023/01/20 11:57:56;;;;;;;2.03;1.30;;;5.50;34.20;;;;;;4947248;29;20210;-70
2023/01/20 12:00:42;;;;;;;1.90;1.20;;;6.10;34.60;;;;;;4937942;29;20960;-70
2023/01/20 12:03:45;;;;;;;1.70;1.10;;;7.20;32.10;;;;;;4951982;29;20234;-70
2023/01/20 12:06:26;;;;;;;1.80;1.30;;;8.40;29.80;;;;;;4953778;28;20217;-70
2023/01/20 12:09:11;;;;;;;2.33;1.60;;;9.40;28.30;;;;;;4946951;29;20202;-71
2023/01/20 12:11:55;;;;;;;3.15;2.13;;;11.00;24.50;;;;;;4952667;28;20258;-70
2023/01/20 12:14:46;;;;;;;1.83;1.10;;;11.90;22.60;;;;;;4950375;29;20206;-71
2023/01/20 12:17:20;;;;;;;2.03;1.30;;;10.80;24.30;;;;;;4952245;29;20187;-71
2023/01/20 12:20:03;;;;;;;2.00;1.30;;;10.20;23.90;;;;;;4954364;29;20387;-70
2023/01/20 12:23:06;;;;;;;1.90;1.30;;;7.60;29.20;;;;;;4951910;29;20182;-72
2023/01/20 12:25:47;;;;;;;2.00;1.30;;;7.70;29.70;;;;;;4952662;28;20206;-71
2023/01/20 12:28:25;;;;;;;2.90;1.40;;;7.80;29.10;;;;;;4949187;28;20198;-70
2023/01/20 12:31:05;;;;;;;2.10;1.40;;;8.50;30.30;;;;;;4950333;29;20189;-70
2023/01/20 12:33:38;;;;;;;2.00;1.30;;;8.60;28.00;;;;;;4951421;29;20711;-70
2023/01/20 12:36:03;;;;;;;2.10;1.30;;;8.50;28.70;;;;;;4949110;28;20226;-72
2023/01/20 12:38:35;;;;;;;3.07;1.90;;;8.80;27.30;;;;;;4948099;29;20180;-71
2023/01/20 12:41:10;;;;;;;1.90;1.10;;;8.80;27.80;;;;;;4951747;29;20325;-70
2023/01/20 12:44:07;;;;;;;2.30;1.55;;;8.30;28.90;;;;;;4953560;29;20884;-70
2023/01/20 12:46:35;;;;;;;2.58;1.50;;;7.70;29.60;;;;;;4952805;29;20557;-72
2023/01/20 12:49:00;;;;;;;2.00;1.30;;;7.80;30.20;;;;;;4949703;29;20183;-70
2023/01/20 12:51:45;;;;;;;2.10;1.40;;;7.40;30.00;;;;;;4951403;29;20187;-70
2023/01/20 12:54:45;;;;;;;1.95;1.30;;;7.40;30.70;;;;;;4953278;28;20208;-71
2023/01/20 12:57:42;;;;;;;2.10;1.30;;;8.10;29.10;;;;;;4953886;29;20175;-70
2023/01/20 13:00:32;;;;;;;2.40;1.60;;;8.60;27.50;;;;;;4951523;29;20713;-70
2023/01/20 13:03:07;;;;;;;1.98;1.30;;;8.90;28.10;;;;;;4948378;29;20187;-71
2023/01/20 13:06:03;;;;;;;1.90;1.10;;;9.80;25.90;;;;;;4951513;28;20267;-70
2023/01/20 13:08:50;;;;;;;2.20;1.50;;;10.10;25.50;;;;;;4953635;29;20170;-73
2023/01/20 13:11:20;;;;;;;1.80;1.10;;;10.30;24.10;;;;;;4954472;29;20200;-72
2023/01/20 13:14:07;;;;;;;2.35;1.65;;;8.70;27.10;;;;;;4955967;29;20278;-73
2023/01/20 13:16:43;;;;;;;1.80;1.10;;;8.40;28.50;;;;;;4955723;29;20492;-73
2023/01/20 13:19:31;;;;;;;2.22;1.63;;;8.00;28.50;;;;;;4954155;29;20180;-72
2023/01/20 13:22:08;;;;;;;2.00;1.33;;;6.80;30.00;;;;;;4936858;29;20182;-72
2023/01/20 13:24:35;;;;;;;2.10;1.30;;;7.20;29.30;;;;;;4933875;29;20226;-73